sensor_id;sensor_type;location;lat;lon;timestamp;P1;durP1;ratioP1;P2;durP2;ratioP2
55114;SDS011;41010;53.252;5.786;2022-12-29T00:01:00;8.07;;;6.68;;
55114;SDS011;41010;53.252;5.786;2022-12-29T00:03:27;8.65;;;6.30;;
55114;SDS011;41010;53.252;5.786;2022-12-29T00:05:55;7.93;;;6.50;;
55114;SDS011;41010;53.252;5.786;2022-12-29T00:08:22;10.05;;;6.78;;
55114;SDS011;41010;53.252;5.786;2022-12-29T00:11:04;7.65;;;6.18;;
55114;SDS011;41010;53.252;5.786;2022-12-29T00:13:31;9.48;;;6.20;;
55114;SDS011;41010;53.252;5.786;2022-12-29T00:16:17;7.55;;;6.30;;
55114;SDS011;41010;53.252;5.786;2022-12-29T00:18:44;7.13;;;5.72;;
55114;SDS011;41010;53.252;5.786;2022-12-29T00:21:13;8.43;;;5.57;;
55114;SDS011;41010;53.252;5.786;2022-12-29T00:23:58;7.07;;;5.32;;
55114;SDS011;41010;53.252;5.786;2022-12-29T00:26:49;9.10;;;6.03;;
55114;SDS011;41010;53.252;5.786;2022-12-29T00:29:37;10.80;;;6.03;;
55114;SDS011;41010;53.252;5.786;2022-12-29T00:32:23;8.70;;;5.78;;
55114;SDS011;41010;53.252;5.786;2022-12-29T00:35:08;6.70;;;5.43;;
55114;SDS011;41010;53.252;5.786;2022-12-29T00:37:36;8.70;;;5.90;;
55114;SDS011;41010;53.252;5.786;2022-12-29T00:40:22;10.30;;;6.15;;
55114;SDS011;41010;53.252;5.786;2022-12-29T00:43:07;9.75;;;6.50;;
55114;SDS011;41010;53.252;5.786;2022-12-29T00:45:51;8.75;;;6.57;;
55114;SDS011;41010;53.252;5.786;2022-12-29T00:48:20;8.02;;;7.05;;
55114;SDS011;41010;53.252;5.786;2022-12-29T00:51:01;9.90;;;6.78;;
55114;SDS011;41010;53.252;5.786;2022-12-29T00:53:28;9.18;;;7.05;;
55114;SDS011;41010;53.252;5.786;2022-12-29T00:55:55;11.52;;;7.65;;
55114;SDS011;41010;53.252;5.786;2022-12-29T00:58:23;8.10;;;6.95;;
55114;SDS011;41010;53.252;5.786;2022-12-29T01:00:50;12.52;;;6.80;;
55114;SDS011;41010;53.252;5.786;2022-12-29T01:03:17;8.57;;;6.70;;
55114;SDS011;41010;53.252;5.786;2022-12-29T01:05:46;9.82;;;7.07;;
55114;SDS011;41010;53.252;5.786;2022-12-29T01:08:13;11.07;;;7.20;;
55114;SDS011;41010;53.252;5.786;2022-12-29T01:10:40;9.45;;;6.90;;
55114;SDS011;41010;53.252;5.786;2022-12-29T01:13:06;9.15;;;6.22;;
55114;SDS011;41010;53.252;5.786;2022-12-29T01:15:34;8.20;;;6.90;;
55114;SDS011;41010;53.252;5.786;2022-12-29T01:18:01;15.15;;;7.00;;
55114;SDS011;41010;53.252;5.786;2022-12-29T01:20:28;8.95;;;6.43;;
55114;SDS011;41010;53.252;5.786;2022-12-29T01:22:57;8.35;;;6.95;;
55114;SDS011;41010;53.252;5.786;2022-12-29T01:25:24;8.80;;;6.45;;
55114;SDS011;41010;53.252;5.786;2022-12-29T01:27:51;9.40;;;6.43;;
55114;SDS011;41010;53.252;5.786;2022-12-29T01:30:18;9.45;;;6.72;;
55114;SDS011;41010;53.252;5.786;2022-12-29T01:32:46;13.07;;;6.80;;
55114;SDS011;41010;53.252;5.786;2022-12-29T01:35:13;8.95;;;6.63;;
55114;SDS011;41010;53.252;5.786;2022-12-29T01:37:40;9.35;;;6.47;;
55114;SDS011;41010;53.252;5.786;2022-12-29T01:40:09;10.60;;;6.60;;
55114;SDS011;41010;53.252;5.786;2022-12-29T01:42:37;13.20;;;6.63;;
55114;SDS011;41010;53.252;5.786;2022-12-29T01:45:07;8.88;;;6.55;;
55114;SDS011;41010;53.252;5.786;2022-12-29T01:47:36;8.82;;;6.75;;
55114;SDS011;41010;53.252;5.786;2022-12-29T01:50:06;12.65;;;7.22;;
55114;SDS011;41010;53.252;5.786;2022-12-29T01:52:36;11.18;;;6.95;;
55114;SDS011;41010;53.252;5.786;2022-12-29T01:55:05;11.48;;;6.57;;
55114;SDS011;41010;53.252;5.786;2022-12-29T01:57:36;10.05;;;6.90;;
55114;SDS011;41010;53.252;5.786;2022-12-29T02:00:05;9.63;;;6.57;;
55114;SDS011;41010;53.252;5.786;2022-12-29T02:02:33;9.63;;;6.80;;
55114;SDS011;41010;53.252;5.786;2022-12-29T02:05:01;9.35;;;6.80;;
55114;SDS011;41010;53.252;5.786;2022-12-29T02:07:31;8.80;;;6.78;;
55114;SDS011;41010;53.252;5.786;2022-12-29T02:09:58;10.88;;;7.47;;
55114;SDS011;41010;53.252;5.786;2022-12-29T02:12:26;15.48;;;8.50;;
55114;SDS011;41010;53.252;5.786;2022-12-29T02:14:55;12.20;;;8.38;;
55114;SDS011;41010;53.252;5.786;2022-12-29T02:17:28;11.00;;;8.02;;
55114;SDS011;41010;53.252;5.786;2022-12-29T02:20:10;9.93;;;8.15;;
55114;SDS011;41010;53.252;5.786;2022-12-29T02:22:42;12.32;;;6.00;;
55114;SDS011;41010;53.252;5.786;2022-12-29T02:28:00;5.38;;;2.78;;
55114;SDS011;41010;53.252;5.786;2022-12-29T02:30:38;5.38;;;2.55;;
55114;SDS011;41010;53.252;5.786;2022-12-29T02:33:09;7.13;;;1.65;;
55114;SDS011;41010;53.252;5.786;2022-12-29T02:35:41;4.25;;;1.33;;
55114;SDS011;41010;53.252;5.786;2022-12-29T02:38:12;6.50;;;1.25;;
55114;SDS011;41010;53.252;5.786;2022-12-29T02:40:42;4.20;;;1.25;;
55114;SDS011;41010;53.252;5.786;2022-12-29T02:43:13;4.07;;;0.80;;
55114;SDS011;41010;53.252;5.786;2022-12-29T02:45:50;5.05;;;0.60;;
55114;SDS011;41010;53.252;5.786;2022-12-29T02:48:20;8.13;;;0.73;;
55114;SDS011;41010;53.252;5.786;2022-12-29T02:50:50;3.40;;;0.70;;
55114;SDS011;41010;53.252;5.786;2022-12-29T02:53:19;3.83;;;0.65;;
55114;SDS011;41010;53.252;5.786;2022-12-29T02:56:08;4.15;;;0.73;;
55114;SDS011;41010;53.252;5.786;2022-12-29T02:58:34;2.72;;;0.70;;
55114;SDS011;41010;53.252;5.786;2022-12-29T03:01:06;3.97;;;0.95;;
55114;SDS011;41010;53.252;5.786;2022-12-29T03:03:41;2.30;;;1.05;;
55114;SDS011;41010;53.252;5.786;2022-12-29T03:06:18;4.57;;;1.80;;
55114;SDS011;41010;53.252;5.786;2022-12-29T03:08:49;3.65;;;1.73;;
55114;SDS011;41010;53.252;5.786;2022-12-29T03:11:21;7.35;;;1.67;;
55114;SDS011;41010;53.252;5.786;2022-12-29T03:14:13;3.88;;;1.50;;
55114;SDS011;41010;53.252;5.786;2022-12-29T03:17:02;8.27;;;1.80;;
55114;SDS011;41010;53.252;5.786;2022-12-29T03:19:35;4.93;;;2.10;;
55114;SDS011;41010;53.252;5.786;2022-12-29T03:22:03;12.38;;;2.30;;
55114;SDS011;41010;53.252;5.786;2022-12-29T03:24:49;15.00;;;2.28;;
55114;SDS011;41010;53.252;5.786;2022-12-29T03:27:18;12.25;;;2.05;;
55114;SDS011;41010;53.252;5.786;2022-12-29T03:29:47;17.50;;;2.15;;
55114;SDS011;41010;53.252;5.786;2022-12-29T03:32:19;18.50;;;3.05;;
55114;SDS011;41010;53.252;5.786;2022-12-29T03:34:47;18.45;;;1.92;;
55114;SDS011;41010;53.252;5.786;2022-12-29T03:37:16;19.23;;;2.22;;
55114;SDS011;41010;53.252;5.786;2022-12-29T03:39:44;16.45;;;2.75;;
55114;SDS011;41010;53.252;5.786;2022-12-29T03:42:12;17.88;;;2.45;;
55114;SDS011;41010;53.252;5.786;2022-12-29T03:44:41;22.05;;;2.10;;
55114;SDS011;41010;53.252;5.786;2022-12-29T03:47:09;9.80;;;1.70;;
55114;SDS011;41010;53.252;5.786;2022-12-29T03:49:38;12.32;;;2.60;;
55114;SDS011;41010;53.252;5.786;2022-12-29T03:52:06;16.70;;;1.73;;
55114;SDS011;41010;53.252;5.786;2022-12-29T03:54:33;15.88;;;2.17;;
55114;SDS011;41010;53.252;5.786;2022-12-29T03:57:00;18.63;;;2.20;;
55114;SDS011;41010;53.252;5.786;2022-12-29T03:59:27;16.17;;;1.73;;
55114;SDS011;41010;53.252;5.786;2022-12-29T04:01:54;12.48;;;2.33;;
55114;SDS011;41010;53.252;5.786;2022-12-29T04:04:22;12.55;;;2.05;;
55114;SDS011;41010;53.252;5.786;2022-12-29T04:06:50;17.92;;;1.90;;
55114;SDS011;41010;53.252;5.786;2022-12-29T04:09:18;13.43;;;2.05;;
55114;SDS011;41010;53.252;5.786;2022-12-29T04:11:45;15.77;;;2.25;;
55114;SDS011;41010;53.252;5.786;2022-12-29T04:14:12;11.95;;;1.40;;
55114;SDS011;41010;53.252;5.786;2022-12-29T04:16:39;16.05;;;1.80;;
55114;SDS011;41010;53.252;5.786;2022-12-29T04:19:07;17.65;;;1.70;;
55114;SDS011;41010;53.252;5.786;2022-12-29T04:21:34;18.23;;;2.20;;
55114;SDS011;41010;53.252;5.786;2022-12-29T04:24:03;23.02;;;2.50;;
55114;SDS011;41010;53.252;5.786;2022-12-29T04:26:31;18.88;;;2.58;;
55114;SDS011;41010;53.252;5.786;2022-12-29T04:28:58;16.17;;;2.78;;
55114;SDS011;41010;53.252;5.786;2022-12-29T04:31:26;17.30;;;2.20;;
55114;SDS011;41010;53.252;5.786;2022-12-29T04:33:53;21.80;;;2.88;;
55114;SDS011;41010;53.252;5.786;2022-12-29T04:36:22;29.77;;;3.58;;
55114;SDS011;41010;53.252;5.786;2022-12-29T04:38:49;27.88;;;3.78;;
55114;SDS011;41010;53.252;5.786;2022-12-29T04:41:18;18.77;;;2.75;;
55114;SDS011;41010;53.252;5.786;2022-12-29T04:43:45;26.50;;;3.70;;
55114;SDS011;41010;53.252;5.786;2022-12-29T04:46:12;34.20;;;4.70;;
55114;SDS011;41010;53.252;5.786;2022-12-29T04:48:40;34.50;;;4.65;;
55114;SDS011;41010;53.252;5.786;2022-12-29T04:51:07;28.60;;;3.63;;
55114;SDS011;41010;53.252;5.786;2022-12-29T04:53:34;35.15;;;4.50;;
55114;SDS011;41010;53.252;5.786;2022-12-29T04:56:01;28.33;;;3.75;;
55114;SDS011;41010;53.252;5.786;2022-12-29T04:58:30;32.38;;;4.47;;
55114;SDS011;41010;53.252;5.786;2022-12-29T05:00:57;33.38;;;5.25;;
55114;SDS011;41010;53.252;5.786;2022-12-29T05:03:24;40.80;;;5.80;;
55114;SDS011;41010;53.252;5.786;2022-12-29T05:05:53;32.42;;;5.85;;
55114;SDS011;41010;53.252;5.786;2022-12-29T05:08:20;35.17;;;3.63;;
55114;SDS011;41010;53.252;5.786;2022-12-29T05:10:49;28.95;;;4.30;;
55114;SDS011;41010;53.252;5.786;2022-12-29T05:13:17;27.55;;;4.00;;
55114;SDS011;41010;53.252;5.786;2022-12-29T05:15:47;32.08;;;4.47;;
55114;SDS011;41010;53.252;5.786;2022-12-29T05:18:15;30.48;;;4.18;;
55114;SDS011;41010;53.252;5.786;2022-12-29T05:20:42;34.60;;;4.63;;
55114;SDS011;41010;53.252;5.786;2022-12-29T05:23:09;36.92;;;4.70;;
55114;SDS011;41010;53.252;5.786;2022-12-29T05:25:36;33.00;;;5.03;;
55114;SDS011;41010;53.252;5.786;2022-12-29T05:28:04;29.30;;;3.42;;
55114;SDS011;41010;53.252;5.786;2022-12-29T05:30:31;31.92;;;3.72;;
55114;SDS011;41010;53.252;5.786;2022-12-29T05:32:59;29.08;;;3.47;;
55114;SDS011;41010;53.252;5.786;2022-12-29T05:35:27;29.38;;;3.47;;
55114;SDS011;41010;53.252;5.786;2022-12-29T05:37:54;33.38;;;4.00;;
55114;SDS011;41010;53.252;5.786;2022-12-29T05:40:21;31.65;;;4.28;;
55114;SDS011;41010;53.252;5.786;2022-12-29T05:42:48;22.40;;;3.30;;
55114;SDS011;41010;53.252;5.786;2022-12-29T05:45:16;23.42;;;2.95;;
55114;SDS011;41010;53.252;5.786;2022-12-29T05:47:43;27.75;;;3.33;;
55114;SDS011;41010;53.252;5.786;2022-12-29T05:50:12;25.20;;;3.83;;
55114;SDS011;41010;53.252;5.786;2022-12-29T05:52:39;32.45;;;3.63;;
55114;SDS011;41010;53.252;5.786;2022-12-29T05:55:06;25.15;;;3.38;;
55114;SDS011;41010;53.252;5.786;2022-12-29T05:57:34;33.90;;;4.28;;
55114;SDS011;41010;53.252;5.786;2022-12-29T06:00:02;28.85;;;4.90;;
55114;SDS011;41010;53.252;5.786;2022-12-29T06:02:29;30.08;;;3.75;;
55114;SDS011;41010;53.252;5.786;2022-12-29T06:04:57;29.70;;;4.18;;
55114;SDS011;41010;53.252;5.786;2022-12-29T06:07:25;24.77;;;3.30;;
55114;SDS011;41010;53.252;5.786;2022-12-29T06:09:52;24.98;;;3.55;;
55114;SDS011;41010;53.252;5.786;2022-12-29T06:12:20;24.98;;;4.65;;
55114;SDS011;41010;53.252;5.786;2022-12-29T06:14:47;26.95;;;3.67;;
55114;SDS011;41010;53.252;5.786;2022-12-29T06:17:14;31.60;;;4.20;;
55114;SDS011;41010;53.252;5.786;2022-12-29T06:19:41;39.58;;;4.50;;
55114;SDS011;41010;53.252;5.786;2022-12-29T06:22:09;33.13;;;5.15;;
55114;SDS011;41010;53.252;5.786;2022-12-29T06:24:38;32.60;;;5.28;;
55114;SDS011;41010;53.252;5.786;2022-12-29T06:27:06;39.80;;;4.57;;
55114;SDS011;41010;53.252;5.786;2022-12-29T06:29:33;34.90;;;5.63;;
55114;SDS011;41010;53.252;5.786;2022-12-29T06:32:02;33.78;;;4.00;;
55114;SDS011;41010;53.252;5.786;2022-12-29T06:34:29;37.20;;;5.55;;
55114;SDS011;41010;53.252;5.786;2022-12-29T06:36:57;41.58;;;4.25;;
55114;SDS011;41010;53.252;5.786;2022-12-29T06:39:24;38.22;;;4.57;;
55114;SDS011;41010;53.252;5.786;2022-12-29T06:41:53;34.15;;;4.30;;
55114;SDS011;41010;53.252;5.786;2022-12-29T06:44:20;34.10;;;5.18;;
55114;SDS011;41010;53.252;5.786;2022-12-29T06:46:48;36.70;;;4.80;;
55114;SDS011;41010;53.252;5.786;2022-12-29T06:49:15;39.63;;;5.45;;
55114;SDS011;41010;53.252;5.786;2022-12-29T06:51:42;44.80;;;6.05;;
55114;SDS011;41010;53.252;5.786;2022-12-29T06:54:10;28.52;;;3.65;;
55114;SDS011;41010;53.252;5.786;2022-12-29T06:56:37;35.53;;;5.03;;
55114;SDS011;41010;53.252;5.786;2022-12-29T06:59:06;34.63;;;5.07;;
55114;SDS011;41010;53.252;5.786;2022-12-29T07:01:33;41.83;;;4.95;;
55114;SDS011;41010;53.252;5.786;2022-12-29T07:04:01;32.42;;;5.25;;
55114;SDS011;41010;53.252;5.786;2022-12-29T07:06:28;36.35;;;5.40;;
55114;SDS011;41010;53.252;5.786;2022-12-29T07:08:55;36.08;;;4.68;;
55114;SDS011;41010;53.252;5.786;2022-12-29T07:11:22;32.85;;;4.35;;
55114;SDS011;41010;53.252;5.786;2022-12-29T07:13:50;29.55;;;5.68;;
55114;SDS011;41010;53.252;5.786;2022-12-29T07:16:18;30.17;;;3.90;;
55114;SDS011;41010;53.252;5.786;2022-12-29T07:18:46;33.72;;;4.45;;
55114;SDS011;41010;53.252;5.786;2022-12-29T07:21:13;40.47;;;4.65;;
55114;SDS011;41010;53.252;5.786;2022-12-29T07:23:40;36.53;;;5.32;;
55114;SDS011;41010;53.252;5.786;2022-12-29T07:26:08;39.55;;;4.88;;
55114;SDS011;41010;53.252;5.786;2022-12-29T07:28:37;38.42;;;5.68;;
55114;SDS011;41010;53.252;5.786;2022-12-29T07:31:04;35.78;;;4.78;;
55114;SDS011;41010;53.252;5.786;2022-12-29T07:33:33;29.95;;;3.72;;
55114;SDS011;41010;53.252;5.786;2022-12-29T07:36:00;34.25;;;5.85;;
55114;SDS011;41010;53.252;5.786;2022-12-29T07:38:28;47.00;;;6.40;;
55114;SDS011;41010;53.252;5.786;2022-12-29T07:40:58;41.35;;;4.55;;
55114;SDS011;41010;53.252;5.786;2022-12-29T07:43:25;33.03;;;4.75;;
55114;SDS011;41010;53.252;5.786;2022-12-29T07:45:52;32.00;;;5.35;;
55114;SDS011;41010;53.252;5.786;2022-12-29T07:48:20;30.92;;;4.97;;
55114;SDS011;41010;53.252;5.786;2022-12-29T07:50:48;31.33;;;4.53;;
55114;SDS011;41010;53.252;5.786;2022-12-29T07:53:16;35.40;;;5.25;;
55114;SDS011;41010;53.252;5.786;2022-12-29T07:55:43;30.02;;;4.35;;
55114;SDS011;41010;53.252;5.786;2022-12-29T07:58:10;32.08;;;5.32;;
55114;SDS011;41010;53.252;5.786;2022-12-29T08:00:37;38.88;;;4.40;;
55114;SDS011;41010;53.252;5.786;2022-12-29T08:03:05;29.38;;;5.10;;
55114;SDS011;41010;53.252;5.786;2022-12-29T08:05:32;42.42;;;5.13;;
55114;SDS011;41010;53.252;5.786;2022-12-29T08:08:01;35.60;;;4.20;;
55114;SDS011;41010;53.252;5.786;2022-12-29T08:10:29;38.35;;;5.07;;
55114;SDS011;41010;53.252;5.786;2022-12-29T08:12:56;36.80;;;4.75;;
55114;SDS011;41010;53.252;5.786;2022-12-29T08:15:24;32.92;;;4.60;;
55114;SDS011;41010;53.252;5.786;2022-12-29T08:17:51;34.97;;;4.95;;
55114;SDS011;41010;53.252;5.786;2022-12-29T08:20:19;30.90;;;4.55;;
55114;SDS011;41010;53.252;5.786;2022-12-29T08:22:46;41.90;;;5.00;;
55114;SDS011;41010;53.252;5.786;2022-12-29T08:25:15;39.33;;;5.25;;
55114;SDS011;41010;53.252;5.786;2022-12-29T08:27:42;35.90;;;4.88;;
55114;SDS011;41010;53.252;5.786;2022-12-29T08:30:10;44.47;;;5.53;;
55114;SDS011;41010;53.252;5.786;2022-12-29T08:32:37;46.63;;;5.72;;
55114;SDS011;41010;53.252;5.786;2022-12-29T08:35:04;43.85;;;5.97;;
55114;SDS011;41010;53.252;5.786;2022-12-29T08:37:32;52.20;;;5.82;;
55114;SDS011;41010;53.252;5.786;2022-12-29T08:39:59;50.75;;;5.40;;
55114;SDS011;41010;53.252;5.786;2022-12-29T08:42:30;53.92;;;5.57;;
55114;SDS011;41010;53.252;5.786;2022-12-29T08:44:58;51.83;;;5.47;;
55114;SDS011;41010;53.252;5.786;2022-12-29T08:47:25;55.05;;;7.18;;
55114;SDS011;41010;53.252;5.786;2022-12-29T08:49:52;56.10;;;5.38;;
55114;SDS011;41010;53.252;5.786;2022-12-29T08:52:19;46.92;;;6.47;;
55114;SDS011;41010;53.252;5.786;2022-12-29T08:54:47;45.28;;;5.78;;
55114;SDS011;41010;53.252;5.786;2022-12-29T08:57:14;45.05;;;5.32;;
55114;SDS011;41010;53.252;5.786;2022-12-29T08:59:42;47.10;;;6.25;;
55114;SDS011;41010;53.252;5.786;2022-12-29T09:02:10;41.95;;;5.35;;
55114;SDS011;41010;53.252;5.786;2022-12-29T09:04:37;45.05;;;5.32;;
55114;SDS011;41010;53.252;5.786;2022-12-29T09:07:05;59.60;;;6.03;;
55114;SDS011;41010;53.252;5.786;2022-12-29T09:09:32;33.22;;;4.65;;
55114;SDS011;41010;53.252;5.786;2022-12-29T09:12:00;45.10;;;5.55;;
55114;SDS011;41010;53.252;5.786;2022-12-29T09:14:27;45.10;;;6.43;;
55114;SDS011;41010;53.252;5.786;2022-12-29T09:16:55;54.63;;;7.15;;
55114;SDS011;41010;53.252;5.786;2022-12-29T09:19:41;50.75;;;6.15;;
55114;SDS011;41010;53.252;5.786;2022-12-29T09:22:08;41.40;;;5.00;;
55114;SDS011;41010;53.252;5.786;2022-12-29T09:24:35;53.20;;;5.97;;
55114;SDS011;41010;53.252;5.786;2022-12-29T09:27:03;56.30;;;5.75;;
55114;SDS011;41010;53.252;5.786;2022-12-29T09:29:30;43.60;;;6.45;;
55114;SDS011;41010;53.252;5.786;2022-12-29T09:31:58;66.03;;;6.60;;
55114;SDS011;41010;53.252;5.786;2022-12-29T09:34:26;56.08;;;7.95;;
55114;SDS011;41010;53.252;5.786;2022-12-29T09:36:53;49.83;;;6.13;;
55114;SDS011;41010;53.252;5.786;2022-12-29T09:39:21;59.58;;;7.03;;
55114;SDS011;41010;53.252;5.786;2022-12-29T09:41:49;60.72;;;6.18;;
55114;SDS011;41010;53.252;5.786;2022-12-29T09:44:20;53.17;;;5.90;;
55114;SDS011;41010;53.252;5.786;2022-12-29T09:46:50;49.95;;;6.57;;
55114;SDS011;41010;53.252;5.786;2022-12-29T09:49:23;48.05;;;5.55;;
55114;SDS011;41010;53.252;5.786;2022-12-29T09:51:52;41.72;;;5.32;;
55114;SDS011;41010;53.252;5.786;2022-12-29T09:54:21;62.03;;;6.18;;
55114;SDS011;41010;53.252;5.786;2022-12-29T09:56:50;41.05;;;5.15;;
55114;SDS011;41010;53.252;5.786;2022-12-29T09:59:19;38.22;;;3.95;;
55114;SDS011;41010;53.252;5.786;2022-12-29T10:01:49;34.88;;;4.30;;
55114;SDS011;41010;53.252;5.786;2022-12-29T10:04:18;39.67;;;4.30;;
55114;SDS011;41010;53.252;5.786;2022-12-29T10:06:51;53.30;;;6.32;;
55114;SDS011;41010;53.252;5.786;2022-12-29T10:09:22;54.67;;;6.05;;
55114;SDS011;41010;53.252;5.786;2022-12-29T10:11:58;65.72;;;6.15;;
55114;SDS011;41010;53.252;5.786;2022-12-29T10:14:33;49.17;;;6.40;;
55114;SDS011;41010;53.252;5.786;2022-12-29T10:17:05;57.72;;;6.15;;
55114;SDS011;41010;53.252;5.786;2022-12-29T10:22:11;48.47;;;5.15;;
55114;SDS011;41010;53.252;5.786;2022-12-29T10:24:42;56.97;;;5.68;;
55114;SDS011;41010;53.252;5.786;2022-12-29T10:27:13;51.38;;;6.30;;
55114;SDS011;41010;53.252;5.786;2022-12-29T10:29:43;52.25;;;6.93;;
55114;SDS011;41010;53.252;5.786;2022-12-29T10:32:14;57.30;;;6.97;;
55114;SDS011;41010;53.252;5.786;2022-12-29T10:34:44;57.00;;;6.93;;
55114;SDS011;41010;53.252;5.786;2022-12-29T10:37:25;68.82;;;7.15;;
55114;SDS011;41010;53.252;5.786;2022-12-29T10:39:54;50.45;;;6.15;;
55114;SDS011;41010;53.252;5.786;2022-12-29T10:42:25;58.50;;;6.38;;
55114;SDS011;41010;53.252;5.786;2022-12-29T10:44:53;54.05;;;5.78;;
55114;SDS011;41010;53.252;5.786;2022-12-29T10:47:21;43.78;;;5.55;;
55114;SDS011;41010;53.252;5.786;2022-12-29T10:49:50;39.47;;;4.93;;
55114;SDS011;41010;53.252;5.786;2022-12-29T10:52:19;30.95;;;4.07;;
55114;SDS011;41010;53.252;5.786;2022-12-29T10:54:48;29.73;;;4.28;;
55114;SDS011;41010;53.252;5.786;2022-12-29T10:57:19;37.47;;;4.50;;
55114;SDS011;41010;53.252;5.786;2022-12-29T10:59:48;37.17;;;4.65;;
55114;SDS011;41010;53.252;5.786;2022-12-29T11:02:21;28.20;;;4.57;;
55114;SDS011;41010;53.252;5.786;2022-12-29T11:04:51;24.55;;;3.13;;
55114;SDS011;41010;53.252;5.786;2022-12-29T11:07:23;42.85;;;4.90;;
55114;SDS011;41010;53.252;5.786;2022-12-29T11:09:51;37.33;;;4.65;;
55114;SDS011;41010;53.252;5.786;2022-12-29T11:12:23;29.42;;;3.60;;
55114;SDS011;41010;53.252;5.786;2022-12-29T11:15:00;28.20;;;3.35;;
55114;SDS011;41010;53.252;5.786;2022-12-29T11:17:28;22.77;;;2.88;;
55114;SDS011;41010;53.252;5.786;2022-12-29T11:19:55;24.25;;;2.78;;
55114;SDS011;41010;53.252;5.786;2022-12-29T11:22:25;20.92;;;2.88;;
55114;SDS011;41010;53.252;5.786;2022-12-29T11:24:53;22.75;;;2.53;;
55114;SDS011;41010;53.252;5.786;2022-12-29T11:27:21;20.92;;;3.47;;
55114;SDS011;41010;53.252;5.786;2022-12-29T11:29:49;24.20;;;3.45;;
55114;SDS011;41010;53.252;5.786;2022-12-29T11:32:18;19.85;;;2.50;;
55114;SDS011;41010;53.252;5.786;2022-12-29T11:34:45;22.80;;;2.70;;
55114;SDS011;41010;53.252;5.786;2022-12-29T11:37:13;23.55;;;2.78;;
55114;SDS011;41010;53.252;5.786;2022-12-29T11:39:43;14.85;;;2.53;;
55114;SDS011;41010;53.252;5.786;2022-12-29T11:42:14;16.70;;;3.08;;
55114;SDS011;41010;53.252;5.786;2022-12-29T11:44:43;25.50;;;2.45;;
55114;SDS011;41010;53.252;5.786;2022-12-29T11:47:12;12.18;;;2.00;;
55114;SDS011;41010;53.252;5.786;2022-12-29T11:49:40;11.63;;;1.70;;
55114;SDS011;41010;53.252;5.786;2022-12-29T11:52:08;16.52;;;1.98;;
55114;SDS011;41010;53.252;5.786;2022-12-29T11:54:36;13.40;;;2.17;;
55114;SDS011;41010;53.252;5.786;2022-12-29T11:57:12;13.88;;;1.65;;
55114;SDS011;41010;53.252;5.786;2022-12-29T11:59:41;12.90;;;1.80;;
55114;SDS011;41010;53.252;5.786;2022-12-29T12:04:53;16.98;;;2.25;;
55114;SDS011;41010;53.252;5.786;2022-12-29T12:07:24;17.23;;;2.28;;
55114;SDS011;41010;53.252;5.786;2022-12-29T12:09:57;17.80;;;2.72;;
55114;SDS011;41010;53.252;5.786;2022-12-29T12:12:27;21.70;;;2.72;;
55114;SDS011;41010;53.252;5.786;2022-12-29T12:14:55;25.08;;;2.85;;
55114;SDS011;41010;53.252;5.786;2022-12-29T12:17:25;17.20;;;3.22;;
55114;SDS011;41010;53.252;5.786;2022-12-29T12:20:02;22.15;;;2.60;;
55114;SDS011;41010;53.252;5.786;2022-12-29T12:22:32;15.45;;;2.38;;
55114;SDS011;41010;53.252;5.786;2022-12-29T12:25:02;18.27;;;2.47;;
55114;SDS011;41010;53.252;5.786;2022-12-29T12:27:33;16.70;;;2.38;;
55114;SDS011;41010;53.252;5.786;2022-12-29T12:30:14;12.63;;;1.90;;
55114;SDS011;41010;53.252;5.786;2022-12-29T12:32:44;17.27;;;2.30;;
55114;SDS011;41010;53.252;5.786;2022-12-29T12:35:13;16.83;;;2.55;;
55114;SDS011;41010;53.252;5.786;2022-12-29T12:40:34;17.60;;;2.33;;
55114;SDS011;41010;53.252;5.786;2022-12-29T12:43:14;17.88;;;2.78;;
55114;SDS011;41010;53.252;5.786;2022-12-29T12:45:48;15.85;;;2.35;;
55114;SDS011;41010;53.252;5.786;2022-12-29T12:48:24;18.63;;;2.45;;
55114;SDS011;41010;53.252;5.786;2022-12-29T12:50:55;15.95;;;2.10;;
55114;SDS011;41010;53.252;5.786;2022-12-29T12:53:31;22.83;;;2.53;;
55114;SDS011;41010;53.252;5.786;2022-12-29T12:56:05;16.15;;;1.90;;
55114;SDS011;41010;53.252;5.786;2022-12-29T12:58:40;17.60;;;2.38;;
55114;SDS011;41010;53.252;5.786;2022-12-29T13:01:18;22.50;;;2.90;;
55114;SDS011;41010;53.252;5.786;2022-12-29T13:04:02;15.90;;;1.67;;
55114;SDS011;41010;53.252;5.786;2022-12-29T13:06:35;15.95;;;2.38;;
55114;SDS011;41010;53.252;5.786;2022-12-29T13:09:12;15.68;;;2.33;;
55114;SDS011;41010;53.252;5.786;2022-12-29T13:11:48;14.93;;;1.83;;
55114;SDS011;41010;53.252;5.786;2022-12-29T13:14:21;13.68;;;2.22;;
55114;SDS011;41010;53.252;5.786;2022-12-29T13:16:51;24.58;;;2.55;;
55114;SDS011;41010;53.252;5.786;2022-12-29T13:19:23;14.20;;;2.10;;
55114;SDS011;41010;53.252;5.786;2022-12-29T13:21:57;14.23;;;2.15;;
55114;SDS011;41010;53.252;5.786;2022-12-29T13:24:29;16.27;;;2.50;;
55114;SDS011;41010;53.252;5.786;2022-12-29T13:26:59;15.10;;;2.25;;
55114;SDS011;41010;53.252;5.786;2022-12-29T13:29:32;17.10;;;2.92;;
55114;SDS011;41010;53.252;5.786;2022-12-29T13:32:04;16.52;;;2.28;;
55114;SDS011;41010;53.252;5.786;2022-12-29T13:34:36;16.42;;;2.17;;
55114;SDS011;41010;53.252;5.786;2022-12-29T13:37:08;18.98;;;1.98;;
55114;SDS011;41010;53.252;5.786;2022-12-29T13:39:37;17.17;;;2.47;;
55114;SDS011;41010;53.252;5.786;2022-12-29T13:42:06;20.58;;;2.40;;
55114;SDS011;41010;53.252;5.786;2022-12-29T13:44:35;18.10;;;2.30;;
55114;SDS011;41010;53.252;5.786;2022-12-29T13:47:05;18.25;;;1.85;;
55114;SDS011;41010;53.252;5.786;2022-12-29T13:49:35;13.45;;;1.80;;
55114;SDS011;41010;53.252;5.786;2022-12-29T13:52:05;14.40;;;1.90;;
55114;SDS011;41010;53.252;5.786;2022-12-29T13:57:05;14.02;;;2.05;;
55114;SDS011;41010;53.252;5.786;2022-12-29T13:59:38;19.90;;;2.88;;
55114;SDS011;41010;53.252;5.786;2022-12-29T14:02:11;17.02;;;2.50;;
55114;SDS011;41010;53.252;5.786;2022-12-29T14:04:55;12.63;;;1.95;;
55114;SDS011;41010;53.252;5.786;2022-12-29T14:07:22;11.40;;;1.63;;
55114;SDS011;41010;53.252;5.786;2022-12-29T14:09:50;18.77;;;2.10;;
55114;SDS011;41010;53.252;5.786;2022-12-29T14:12:24;14.50;;;2.00;;
55114;SDS011;41010;53.252;5.786;2022-12-29T14:14:57;19.13;;;2.42;;
55114;SDS011;41010;53.252;5.786;2022-12-29T14:17:28;20.08;;;2.17;;
55114;SDS011;41010;53.252;5.786;2022-12-29T14:19:56;16.42;;;2.05;;
55114;SDS011;41010;53.252;5.786;2022-12-29T14:22:23;18.63;;;2.25;;
55114;SDS011;41010;53.252;5.786;2022-12-29T14:24:51;19.55;;;3.15;;
55114;SDS011;41010;53.252;5.786;2022-12-29T14:30:18;18.30;;;2.10;;
55114;SDS011;41010;53.252;5.786;2022-12-29T14:33:10;18.33;;;2.25;;
55114;SDS011;41010;53.252;5.786;2022-12-29T14:35:40;18.67;;;2.10;;
55114;SDS011;41010;53.252;5.786;2022-12-29T14:41:23;16.58;;;1.98;;
55114;SDS011;41010;53.252;5.786;2022-12-29T14:43:52;26.27;;;2.75;;
55114;SDS011;41010;53.252;5.786;2022-12-29T14:46:21;19.42;;;2.63;;
55114;SDS011;41010;53.252;5.786;2022-12-29T14:48:52;17.40;;;1.77;;
55114;SDS011;41010;53.252;5.786;2022-12-29T14:51:27;16.63;;;2.67;;
55114;SDS011;41010;53.252;5.786;2022-12-29T14:53:56;15.93;;;1.92;;
55114;SDS011;41010;53.252;5.786;2022-12-29T14:56:27;22.65;;;1.95;;
55114;SDS011;41010;53.252;5.786;2022-12-29T14:58:56;19.45;;;2.33;;
55114;SDS011;41010;53.252;5.786;2022-12-29T15:01:28;18.23;;;2.40;;
55114;SDS011;41010;53.252;5.786;2022-12-29T15:04:00;17.98;;;2.25;;
55114;SDS011;41010;53.252;5.786;2022-12-29T15:06:30;18.73;;;2.53;;
55114;SDS011;41010;53.252;5.786;2022-12-29T15:09:00;21.95;;;3.38;;
55114;SDS011;41010;53.252;5.786;2022-12-29T15:11:31;21.40;;;2.20;;